Time;durP1;ratioP1;P1;durP2;ratioP2;P2;SDS_P1;SDS_P2;PMS_P1;PMS_P2;Temp;Humidity;BMP_temperature;BMP_pressure;BME280_temperature;BME280_humidity;BME280_pressure;Samples;Min_cycle;Max_cycle;Signal;HPM_P1;HPM_P2
2021/07/24 00:00:45;;;;;;;8.03;5.20;;;20.40;91.60;;;;;;6297494;28;20234;-66
2021/07/24 00:03:48;;;;;;;5.93;5.43;;;20.40;91.60;;;;;;6297814;28;20237;-65
2021/07/24 00:06:51;;;;;;;6.70;5.90;;;20.40;91.70;;;;;;6297749;28;20242;-65
2021/07/24 00:09:54;;;;;;;6.37;5.77;;;20.40;91.60;;;;;;6298032;28;20231;-66
2021/07/24 00:12:57;;;;;;;8.57;5.57;;;20.40;91.60;;;;;;6296668;28;20227;-65
2021/07/24 00:16:02;;;;;;;6.50;5.90;;;20.40;91.70;;;;;;6297738;28;20260;-65
2021/07/24 00:19:06;;;;;;;5.67;5.17;;;20.20;91.70;;;;;;6300692;28;20579;-65
2021/07/24 00:22:09;;;;;;;9.47;7.03;;;20.10;92.00;;;;;;6302140;28;20249;-65
2021/07/24 00:25:12;;;;;;;6.17;5.67;;;20.10;92.30;;;;;;6301828;28;20680;-66
2021/07/24 00:28:15;;;;;;;7.67;6.57;;;20.10;92.40;;;;;;6302079;28;20241;-65
2021/07/24 00:31:20;;;;;;;11.90;6.63;;;20.10;92.50;;;;;;6302214;28;20238;-65
2021/07/24 00:34:23;;;;;;;6.63;6.03;;;20.00;92.50;;;;;;6301460;28;20310;-65
2021/07/24 00:37:26;;;;;;;7.10;6.10;;;20.00;92.50;;;;;;6302341;28;20237;-65
2021/07/24 00:40:31;;;;;;;7.40;6.07;;;20.00;92.70;;;;;;6301667;28;20262;-66
2021/07/24 00:43:36;;;;;;;8.37;6.70;;;19.90;92.90;;;;;;6297488;28;20235;-67
2021/07/24 00:46:42;;;;;;;8.57;7.30;;;19.80;93.10;;;;;;6301728;28;20223;-68
2021/07/24 00:49:46;;;;;;;17.80;12.17;;;19.70;93.40;;;;;;6302253;28;20227;-62
2021/07/24 00:52:49;;;;;;;15.00;8.80;;;19.70;93.90;;;;;;6300833;28;20598;-65
2021/07/24 00:55:53;;;;;;;12.80;8.93;;;19.60;94.10;;;;;;6301034;28;20230;-63
2021/07/24 00:58:56;;;;;;;10.73;8.30;;;19.60;94.20;;;;;;6301596;28;20683;-68
2021/07/24 01:02:01;;;;;;;57.47;30.77;;;19.60;94.30;;;;;;6301082;28;20313;-64
2021/07/24 01:05:07;;;;;;;26.77;15.33;;;19.60;94.30;;;;;;6301257;28;20223;-63
2021/07/24 01:08:11;;;;;;;21.27;14.27;;;19.60;94.30;;;;;;6300978;28;20245;-64
2021/07/24 01:11:14;;;;;;;35.80;18.90;;;19.60;94.40;;;;;;6282703;28;20695;-66
2021/07/24 01:14:18;;;;;;;24.93;16.43;;;19.60;94.60;;;;;;6283540;28;20628;-66
2021/07/24 01:17:22;;;;;;;18.27;13.10;;;19.60;94.60;;;;;;6288133;28;20269;-66
2021/07/24 01:20:26;;;;;;;20.23;11.73;;;19.60;94.60;;;;;;6291896;28;20219;-66
2021/07/24 01:23:31;;;;;;;14.00;10.23;;;19.70;94.70;;;;;;6267102;28;20238;-66
2021/07/24 01:26:36;;;;;;;9.60;7.10;;;19.60;94.60;;;;;;6274117;28;20242;-66
2021/07/24 01:29:39;;;;;;;9.43;6.60;;;19.60;94.70;;;;;;6275238;28;20665;-66
2021/07/24 01:32:42;;;;;;;7.50;6.80;;;19.60;94.80;;;;;;6275938;28;20242;-67
2021/07/24 01:35:46;;;;;;;8.00;6.80;;;19.50;94.80;;;;;;6274641;28;20230;-64
2021/07/24 01:38:51;;;;;;;9.50;7.20;;;19.40;95.00;;;;;;6275165;28;20210;-66
2021/07/24 01:41:55;;;;;;;7.30;6.23;;;19.40;95.10;;;;;;6275819;28;20204;-66
2021/07/24 01:44:58;;;;;;;6.60;6.00;;;19.40;95.20;;;;;;6276006;28;20210;-67
2021/07/24 01:48:03;;;;;;;6.97;6.27;;;19.40;95.40;;;;;;6275299;28;20251;-66
2021/07/24 01:54:32;;;;;;;7.30;6.60;;;19.30;95.50;;;;;;6275170;28;20236;-67
2021/07/24 01:57:38;;;;;;;6.80;6.17;;;19.20;96.00;;;;;;6275681;28;20235;-67
2021/07/24 02:00:44;;;;;;;6.93;6.23;;;19.10;96.20;;;;;;6275509;28;20235;-67
2021/07/24 02:03:52;;;;;;;7.93;6.70;;;19.20;96.40;;;;;;6275533;28;20314;-67
2021/07/24 02:06:55;;;;;;;9.30;7.10;;;19.00;96.60;;;;;;6275093;28;20243;-67
2021/07/24 02:10:00;;;;;;;6.43;5.73;;;19.00;96.60;;;;;;6275454;28;20234;-67
2021/07/24 02:13:03;;;;;;;6.50;5.80;;;19.10;96.60;;;;;;6274536;28;20576;-67
2021/07/24 02:16:07;;;;;;;7.80;7.00;;;19.10;96.50;;;;;;6275440;28;20253;-66
2021/07/24 02:19:11;;;;;;;7.00;6.30;;;19.10;96.50;;;;;;6274926;28;20231;-66
2021/07/24 02:22:14;;;;;;;7.20;6.50;;;19.10;96.50;;;;;;6275283;28;20252;-67
2021/07/24 02:25:19;;;;;;;6.40;5.80;;;19.10;96.60;;;;;;6274897;28;20228;-66
2021/07/24 02:28:22;;;;;;;8.97;6.27;;;19.00;96.60;;;;;;6274627;28;20236;-66
2021/07/24 02:31:25;;;;;;;7.47;6.77;;;18.90;96.90;;;;;;6274643;28;20239;-66
2021/07/24 02:34:28;;;;;;;8.00;6.80;;;18.90;96.90;;;;;;6274655;28;20369;-66
2021/07/24 02:37:31;;;;;;;7.73;7.03;;;18.90;97.00;;;;;;6274823;28;20228;-66
2021/07/24 02:40:37;;;;;;;7.60;6.90;;;18.80;97.20;;;;;;6274226;28;20481;-66
2021/07/24 02:43:40;;;;;;;7.07;6.37;;;18.80;97.50;;;;;;6274305;28;20230;-66
2021/07/24 02:46:43;;;;;;;6.57;5.87;;;18.80;97.40;;;;;;6274304;28;20672;-66
2021/07/24 02:49:46;;;;;;;7.67;6.70;;;18.80;97.50;;;;;;6274270;28;20459;-66
2021/07/24 02:52:49;;;;;;;9.87;6.57;;;18.80;97.70;;;;;;6264955;28;20492;-66
2021/07/24 02:55:54;;;;;;;6.83;6.13;;;18.80;97.60;;;;;;6274189;28;20553;-66
2021/07/24 02:58:57;;;;;;;7.43;6.20;;;18.80;97.60;;;;;;6273919;28;20225;-66
2021/07/24 03:02:00;;;;;;;7.80;6.90;;;18.90;97.60;;;;;;6274170;28;20568;-67
2021/07/24 03:05:04;;;;;;;7.30;6.23;;;18.70;97.90;;;;;;6273891;28;20223;-67
2021/07/24 03:08:07;;;;;;;7.03;6.33;;;18.70;98.20;;;;;;6274207;28;20234;-66
2021/07/24 03:11:11;;;;;;;7.47;6.60;;;18.70;98.00;;;;;;6273760;28;20242;-66
2021/07/24 03:14:14;;;;;;;6.70;6.10;;;18.70;98.00;;;;;;6273788;28;20228;-66
2021/07/24 03:17:18;;;;;;;7.33;6.63;;;18.60;98.20;;;;;;6273665;28;20238;-67
2021/07/24 03:20:21;;;;;;;8.43;6.50;;;18.60;98.20;;;;;;6272785;28;20227;-66
2021/07/24 03:23:24;;;;;;;7.67;6.67;;;18.60;98.20;;;;;;6249094;28;20232;-66
2021/07/24 03:26:29;;;;;;;7.90;7.10;;;18.60;98.40;;;;;;6249002;28;20228;-67
2021/07/24 03:29:32;;;;;;;8.17;7.37;;;18.60;98.50;;;;;;6249043;28;20228;-68
2021/07/24 03:32:35;;;;;;;7.07;6.43;;;18.50;98.60;;;;;;6248999;28;20483;-66
2021/07/24 03:35:38;;;;;;;7.60;6.77;;;18.60;98.60;;;;;;6249051;28;20250;-66
2021/07/24 03:38:41;;;;;;;7.40;6.80;;;18.50;98.50;;;;;;6248759;28;20501;-67
2021/07/24 03:41:46;;;;;;;7.00;6.30;;;18.40;98.80;;;;;;6248976;28;20250;-66
2021/07/24 03:44:49;;;;;;;8.37;7.57;;;18.40;98.90;;;;;;6248453;28;20931;-66
2021/07/24 03:47:52;;;;;;;7.30;6.60;;;18.50;98.90;;;;;;6248862;28;20490;-67
2021/07/24 03:50:55;;;;;;;7.47;6.67;;;18.50;98.80;;;;;;6248599;28;20254;-66
2021/07/24 03:53:58;;;;;;;9.60;7.07;;;18.50;98.90;;;;;;6247395;28;20228;-67
2021/07/24 03:57:03;;;;;;;8.90;8.00;;;18.50;98.80;;;;;;6253416;28;20200;-67
2021/07/24 04:00:08;;;;;;;7.40;6.70;;;18.50;98.80;;;;;;6253575;28;20243;-67
2021/07/24 04:03:11;;;;;;;7.23;6.43;;;18.50;99.00;;;;;;6253412;28;20470;-66
2021/07/24 04:06:20;;;;;;;7.93;7.20;;;18.40;99.30;;;;;;6253518;28;20366;-67
2021/07/24 04:09:23;;;;;;;6.93;6.23;;;18.50;99.10;;;;;;6253523;28;20243;-67
2021/07/24 04:12:28;;;;;;;7.90;7.10;;;18.50;98.90;;;;;;6253251;28;20236;-67
2021/07/24 04:15:32;;;;;;;7.10;6.40;;;18.70;98.80;;;;;;6253053;28;20243;-68
2021/07/24 04:18:35;;;;;;;7.90;6.47;;;18.80;99.00;;;;;;6253167;28;20235;-67
2021/07/24 04:21:38;;;;;;;7.73;6.93;;;18.90;98.30;;;;;;6253016;28;20692;-67
2021/07/24 04:24:41;;;;;;;7.10;6.50;;;19.10;98.10;;;;;;6252872;28;20227;-67
2021/07/24 04:27:47;;;;;;;7.43;6.67;;;19.20;97.80;;;;;;6252752;28;20570;-67
2021/07/24 04:30:50;;;;;;;8.50;7.70;;;19.20;97.50;;;;;;6252753;28;20228;-67
2021/07/24 04:33:53;;;;;;;7.40;6.70;;;19.40;97.30;;;;;;6253207;28;20255;-69
2021/07/24 04:36:56;;;;;;;9.73;7.97;;;19.50;97.00;;;;;;6252351;28;20236;-67
2021/07/24 04:39:59;;;;;;;8.10;7.40;;;19.60;96.90;;;;;;6252815;28;20250;-67
2021/07/24 04:43:04;;;;;;;8.00;7.23;;;19.70;96.80;;;;;;6252584;28;20240;-67
2021/07/24 04:46:08;;;;;;;9.07;7.40;;;19.70;96.70;;;;;;6252492;28;20574;-67
2021/07/24 04:49:11;;;;;;;7.57;6.87;;;19.80;96.70;;;;;;6252498;28;20236;-67
2021/07/24 04:52:14;;;;;;;7.87;7.10;;;19.90;96.70;;;;;;6252348;28;20556;-66
2021/07/24 04:55:18;;;;;;;9.03;8.03;;;19.90;96.70;;;;;;6252342;28;20315;-67
2021/07/24 04:58:23;;;;;;;8.70;7.80;;;20.00;96.60;;;;;;6252218;28;20243;-66
2021/07/24 05:01:26;;;;;;;9.00;8.20;;;20.10;96.40;;;;;;6247941;28;20231;-67
2021/07/24 05:04:30;;;;;;;9.00;8.20;;;20.20;96.20;;;;;;6251526;28;20239;-67
2021/07/24 05:07:33;;;;;;;9.23;7.80;;;20.30;96.10;;;;;;6251857;28;20243;-66
2021/07/24 05:10:37;;;;;;;9.10;7.87;;;20.40;96.10;;;;;;6251765;28;20232;-66
2021/07/24 05:13:41;;;;;;;9.30;8.30;;;20.50;95.90;;;;;;6251802;28;20674;-67
2021/07/24 05:16:44;;;;;;;9.27;8.47;;;20.60;95.80;;;;;;6251736;28;20715;-68
2021/07/24 05:19:48;;;;;;;8.70;7.90;;;20.70;95.80;;;;;;6251930;28;20232;-67
2021/07/24 05:22:51;;;;;;;11.03;9.93;;;20.60;95.60;;;;;;6251611;28;20263;-67
2021/07/24 05:25:54;;;;;;;9.93;8.93;;;20.60;95.60;;;;;;6251842;28;20290;-68
2021/07/24 05:28:58;;;;;;;9.70;8.70;;;20.60;95.80;;;;;;6251342;28;20608;-68
2021/07/24 05:32:02;;;;;;;10.90;9.13;;;20.80;95.80;;;;;;6251268;28;20585;-68
2021/07/24 05:35:06;;;;;;;9.87;8.87;;;21.00;95.60;;;;;;6251203;28;20239;-68
2021/07/24 05:38:09;;;;;;;9.77;8.87;;;21.10;95.10;;;;;;6251148;28;20689;-68
2021/07/24 05:41:12;;;;;;;9.47;8.57;;;21.20;94.80;;;;;;6251308;28;20704;-67
2021/07/24 05:44:20;;;;;;;10.83;8.80;;;21.40;94.50;;;;;;6250769;28;20728;-67
2021/07/24 05:47:23;;;;;;;11.20;8.87;;;21.50;94.30;;;;;;6251017;28;20243;-67
2021/07/24 05:50:26;;;;;;;9.43;8.53;;;21.40;94.10;;;;;;6250744;28;20235;-67
2021/07/24 05:53:29;;;;;;;13.50;9.80;;;21.60;94.00;;;;;;6250932;28;20261;-66
2021/07/24 05:56:32;;;;;;;9.90;9.00;;;21.80;93.80;;;;;;6250390;28;20255;-67
2021/07/24 05:59:37;;;;;;;9.90;9.03;;;22.00;93.50;;;;;;6250832;28;20224;-67
2021/07/24 06:02:40;;;;;;;10.00;8.90;;;22.30;93.00;;;;;;6250441;28;20243;-67
2021/07/24 06:05:44;;;;;;;11.43;9.10;;;22.70;92.40;;;;;;6241817;28;20238;-67
2021/07/24 06:08:47;;;;;;;9.43;8.30;;;23.00;91.80;;;;;;6250423;28;20243;-67
2021/07/24 06:11:50;;;;;;;10.33;9.23;;;23.40;90.90;;;;;;6275251;28;20215;-66
2021/07/24 06:14:58;;;;;;;9.53;8.63;;;24.00;89.50;;;;;;6274293;28;20652;-67
2021/07/24 06:18:01;;;;;;;10.43;8.97;;;24.60;87.70;;;;;;6275058;28;20204;-67
2021/07/24 06:21:05;;;;;;;9.53;8.50;;;25.00;85.60;;;;;;6275300;28;20215;-67
2021/07/24 06:24:08;;;;;;;10.43;9.47;;;25.30;83.40;;;;;;6275202;28;20235;-67
2021/07/24 06:27:11;;;;;;;8.40;7.60;;;25.80;80.50;;;;;;6275368;28;20227;-67
2021/07/24 06:30:16;;;;;;;8.77;8.00;;;26.00;79.30;;;;;;6274620;28;20580;-68
2021/07/24 06:33:19;;;;;;;9.63;7.67;;;26.50;76.80;;;;;;6275213;28;20235;-67
2021/07/24 06:36:22;;;;;;;10.27;9.27;;;26.70;74.60;;;;;;6274436;28;20239;-68
2021/07/24 06:39:26;;;;;;;9.20;8.40;;;26.90;73.70;;;;;;6274864;28;20230;-68
2021/07/24 06:42:29;;;;;;;9.80;8.90;;;27.00;73.40;;;;;;6274429;28;20227;-68
2021/07/24 06:45:33;;;;;;;9.77;8.87;;;27.30;72.50;;;;;;6274653;28;20230;-67
2021/07/24 06:48:36;;;;;;;8.93;8.13;;;27.60;70.80;;;;;;6274173;28;20292;-68
2021/07/24 06:51:39;;;;;;;9.37;8.07;;;27.90;70.90;;;;;;6274704;28;20234;-61
2021/07/24 06:54:43;;;;;;;10.07;9.13;;;28.80;68.30;;;;;;6274596;28;20318;-61
2021/07/24 06:57:46;;;;;;;11.07;10.17;;;29.00;66.00;;;;;;6273927;28;20231;-61
2021/07/24 07:00:51;;;;;;;9.57;8.67;;;29.00;65.10;;;;;;6274663;28;20226;-61
2021/07/24 07:03:54;;;;;;;10.53;9.37;;;29.80;63.30;;;;;;6274144;28;20242;-67
2021/07/24 07:06:57;;;;;;;9.80;8.80;;;30.70;60.30;;;;;;6269557;28;20227;-68
2021/07/24 07:10:00;;;;;;;9.75;8.85;;;31.20;58.20;;;;;;6274263;28;20239;-67
2021/07/24 07:13:03;;;;;;;10.50;9.50;;;31.90;57.00;;;;;;6273909;28;20244;-67
2021/07/24 07:16:09;;;;;;;9.93;8.93;;;32.70;54.70;;;;;;6273741;28;20322;-67
2021/07/24 07:19:13;;;;;;;9.65;8.88;;;33.60;52.40;;;;;;6274056;28;20227;-62
2021/07/24 07:22:16;;;;;;;9.75;8.93;;;34.20;50.80;;;;;;6274011;28;20246;-62
2021/07/24 07:25:19;;;;;;;9.57;8.57;;;34.80;48.50;;;;;;6274102;28;20237;-67
2021/07/24 07:28:22;;;;;;;9.10;8.27;;;35.50;47.70;;;;;;6277534;28;20709;-67
2021/07/24 07:31:26;;;;;;;9.98;9.02;;;35.90;46.70;;;;;;6279243;28;20239;-70
2021/07/24 07:34:30;;;;;;;8.85;8.05;;;36.40;45.40;;;;;;6278624;28;20682;-69
2021/07/24 07:37:46;;;;;;;10.10;9.20;;;36.60;44.70;;;;;;6293145;28;20233;-71
2021/07/24 07:40:50;;;;;;;10.02;9.23;;;36.80;43.80;;;;;;6283275;28;20575;-70
2021/07/24 07:43:53;;;;;;;9.30;8.55;;;37.60;43.10;;;;;;6283869;28;20698;-70
2021/07/24 07:46:57;;;;;;;9.15;8.32;;;37.90;42.00;;;;;;6295750;28;20215;-69
2021/07/24 07:50:01;;;;;;;9.88;8.82;;;38.60;41.30;;;;;;6295994;28;20643;-69
2021/07/24 07:53:04;;;;;;;9.93;9.13;;;39.50;39.90;;;;;;6271770;28;20573;-69
2021/07/24 07:56:09;;;;;;;9.40;8.70;;;40.50;38.90;;;;;;6263521;28;20699;-68
2021/07/24 07:59:12;;;;;;;8.77;8.05;;;40.80;36.90;;;;;;6297537;28;20241;-69
2021/07/24 08:02:17;;;;;;;8.85;8.15;;;40.40;37.40;;;;;;6301861;28;20218;-69
2021/07/24 08:05:21;;;;;;;9.02;8.32;;;41.30;36.50;;;;;;6268016;28;20719;-69
2021/07/24 08:08:24;;;;;;;9.40;8.70;;;42.30;35.20;;;;;;6296061;28;20698;-69
2021/07/24 08:11:28;;;;;;;9.82;9.07;;;42.40;34.50;;;;;;6296460;28;20222;-69
2021/07/24 08:14:31;;;;;;;10.05;9.25;;;42.60;34.10;;;;;;6264415;28;20242;-69
2021/07/24 08:17:35;;;;;;;10.25;9.35;;;41.80;34.40;;;;;;6253070;28;20242;-69
2021/07/24 08:20:40;;;;;;;10.57;9.70;;;41.20;35.00;;;;;;6252887;28;20605;-69
2021/07/24 08:23:43;;;;;;;9.88;9.07;;;40.20;35.40;;;;;;6253328;28;20239;-70
2021/07/24 08:26:46;;;;;;;10.75;9.85;;;38.00;38.40;;;;;;6252940;28;20228;-69
2021/07/24 08:29:52;;;;;;;10.48;9.68;;;37.70;39.30;;;;;;6277779;28;20270;-68
2021/07/24 08:32:56;;;;;;;10.52;9.60;;;37.30;39.90;;;;;;6277782;28;20223;-68
2021/07/24 08:36:00;;;;;;;10.48;9.77;;;37.10;40.30;;;;;;6277730;28;20215;-68
2021/07/24 08:39:04;;;;;;;10.68;9.77;;;36.30;41.10;;;;;;6276669;28;20207;-68
2021/07/24 08:42:07;;;;;;;10.00;9.27;;;35.60;42.40;;;;;;6277222;28;20256;-69
2021/07/24 08:45:13;;;;;;;12.23;11.32;;;34.80;43.60;;;;;;6277459;28;20223;-69
2021/07/24 08:48:19;;;;;;;11.38;10.48;;;34.20;44.90;;;;;;6277225;28;20660;-69
2021/07/24 08:51:23;;;;;;;10.43;9.43;;;33.00;46.80;;;;;;6277537;28;20238;-68
2021/07/24 08:54:26;;;;;;;11.20;9.77;;;32.30;48.30;;;;;;6276895;28;20242;-69
2021/07/24 08:57:33;;;;;;;11.23;10.30;;;31.40;50.40;;;;;;6277262;28;20238;-67
2021/07/24 09:00:37;;;;;;;11.95;10.75;;;31.10;51.00;;;;;;6277079;28;20309;-68
2021/07/24 09:03:41;;;;;;;10.95;10.13;;;31.20;51.20;;;;;;6276813;28;20625;-68
2021/07/24 09:06:45;;;;;;;11.70;10.88;;;31.10;51.50;;;;;;6276860;28;20251;-69
2021/07/24 09:09:49;;;;;;;11.65;10.75;;;30.60;52.40;;;;;;6277146;28;20237;-68
2021/07/24 09:12:56;;;;;;;12.23;10.70;;;30.40;53.00;;;;;;6271591;28;20235;-69
2021/07/24 09:16:00;;;;;;;11.17;10.37;;;30.40;54.00;;;;;;6276650;28;20231;-69
2021/07/24 09:19:05;;;;;;;11.50;10.37;;;30.30;53.60;;;;;;6276557;28;20238;-69
2021/07/24 09:22:25;;;;;;;10.88;9.95;;;30.40;54.10;;;;;;6276717;28;20249;-68
2021/07/24 09:25:28;;;;;;;11.30;10.20;;;30.60;53.80;;;;;;6276118;28;20231;-67
2021/07/24 09:28:32;;;;;;;10.50;9.50;;;30.60;53.70;;;;;;6276229;28;20605;-69
2021/07/24 09:31:39;;;;;;;11.17;10.10;;;30.40;54.00;;;;;;6276138;28;20231;-69
2021/07/24 09:34:45;;;;;;;11.20;10.30;;;30.40;54.50;;;;;;6276458;28;20316;-69
2021/07/24 09:37:49;;;;;;;10.97;10.07;;;30.50;54.60;;;;;;6276055;28;20238;-68
2021/07/24 09:40:52;;;;;;;11.43;10.33;;;30.40;54.70;;;;;;6276193;28;20230;-68
2021/07/24 09:43:59;;;;;;;10.23;9.53;;;30.30;55.00;;;;;;6275744;28;20239;-68
2021/07/24 09:47:03;;;;;;;10.70;9.80;;;30.20;55.90;;;;;;6275984;28;20236;-68
2021/07/24 09:50:15;;;;;;;11.60;10.50;;;30.40;55.80;;;;;;6275486;28;20241;-69
2021/07/24 09:53:35;;;;;;;11.80;10.80;;;30.30;55.70;;;;;;6275415;28;20235;-68
2021/07/24 09:56:40;;;;;;;10.77;9.87;;;30.30;55.50;;;;;;6275140;28;20235;-68
2021/07/24 09:59:43;;;;;;;12.00;10.90;;;30.20;56.10;;;;;;6275557;28;20230;-69
2021/07/24 10:02:47;;;;;;;12.80;11.70;;;30.30;55.70;;;;;;6275445;28;20572;-68
2021/07/24 10:05:52;;;;;;;11.97;10.87;;;30.30;55.90;;;;;;6286427;28;20271;-68
2021/07/24 10:08:56;;;;;;;11.20;10.17;;;30.20;56.10;;;;;;6287727;28;20190;-68
2021/07/24 10:12:01;;;;;;;12.37;11.27;;;30.10;56.60;;;;;;6266418;28;20223;-67
2021/07/24 10:15:07;;;;;;;11.23;10.30;;;30.30;56.70;;;;;;6292306;28;20207;-68
2021/07/24 10:18:12;;;;;;;12.47;11.37;;;30.20;56.10;;;;;;6268984;28;20257;-63
2021/07/24 10:21:16;;;;;;;12.70;11.50;;;30.30;55.80;;;;;;6273575;28;20231;-63
2021/07/24 10:24:20;;;;;;;11.53;10.27;;;30.50;55.60;;;;;;6262987;28;20562;-62
2021/07/24 10:27:29;;;;;;;11.40;10.50;;;30.70;56.10;;;;;;6261583;28;20747;-63
2021/07/24 10:30:34;;;;;;;11.93;10.83;;;30.60;55.60;;;;;;6276266;28;20223;-63
2021/07/24 10:33:39;;;;;;;13.25;12.10;;;30.40;55.90;;;;;;6288348;28;20230;-65
2021/07/24 10:36:44;;;;;;;11.98;10.88;;;30.50;56.50;;;;;;6278429;28;20680;-64
2021/07/24 10:39:47;;;;;;;12.05;11.15;;;30.60;56.20;;;;;;6261862;28;20223;-69
2021/07/24 10:42:51;;;;;;;12.52;11.63;;;30.70;56.20;;;;;;6264736;28;20230;-68
2021/07/24 10:45:54;;;;;;;11.88;10.88;;;30.70;56.40;;;;;;6282924;28;20226;-62
2021/07/24 10:48:57;;;;;;;12.20;11.20;;;30.60;57.00;;;;;;6295677;28;20237;-59
2021/07/24 10:52:04;;;;;;;12.93;11.83;;;30.30;57.70;;;;;;6283250;28;20219;-60
2021/07/24 10:55:13;;;;;;;13.40;12.40;;;30.30;58.80;;;;;;6265588;28;20243;-64
2021/07/24 10:58:18;;;;;;;13.27;12.27;;;30.30;58.20;;;;;;6265635;28;20229;-64
2021/07/24 11:01:44;;;;;;;12.85;11.75;;;30.40;57.90;;;;;;6259834;28;20699;-64
2021/07/24 11:04:50;;;;;;;12.80;11.70;;;30.30;57.80;;;;;;6264301;28;20692;-61
2021/07/24 11:07:56;;;;;;;12.63;11.40;;;30.50;57.50;;;;;;6261748;28;20828;-69
2021/07/24 11:11:11;;;;;;;14.70;13.60;;;30.60;58.20;;;;;;6271268;28;20223;-69
2021/07/24 11:14:50;;;;;;;13.40;12.02;;;30.60;58.70;;;;;;6272579;28;20230;-71
2021/07/24 11:18:22;;;;;;;12.60;11.45;;;30.60;58.80;;;;;;6196875;28;20228;-64
2021/07/24 11:21:58;;;;;;;12.43;11.30;;;30.70;58.40;;;;;;6192577;28;20231;-65
2021/07/24 11:25:33;;;;;;;14.30;13.07;;;30.80;58.20;;;;;;6276820;28;20234;-63
2021/07/24 11:28:37;;;;;;;13.73;12.63;;;30.70;58.00;;;;;;6284543;28;20260;-61
2021/07/24 11:31:44;;;;;;;13.43;12.32;;;30.70;58.30;;;;;;6271586;28;20219;-66
2021/07/24 11:34:57;;;;;;;12.00;11.02;;;31.00;58.40;;;;;;6261039;28;20231;-64
2021/07/24 11:38:00;;;;;;;13.77;12.65;;;31.20;57.90;;;;;;6270854;28;20679;-64
2021/07/24 11:41:07;;;;;;;13.03;11.93;;;30.90;58.10;;;;;;6272963;28;20259;-62
2021/07/24 11:44:10;;;;;;;13.45;12.27;;;30.90;58.80;;;;;;6264506;28;20672;-63
2021/07/24 11:47:17;;;;;;;14.10;12.93;;;31.10;58.80;;;;;;6269549;28;20566;-60
2021/07/24 11:50:22;;;;;;;13.35;12.13;;;31.30;58.10;;;;;;6273492;28;20576;-61
2021/07/24 11:53:25;;;;;;;12.73;11.77;;;31.20;58.80;;;;;;6252097;28;20243;-60
2021/07/24 11:56:30;;;;;;;12.80;11.80;;;31.20;58.50;;;;;;6248428;28;20243;-62
2021/07/24 11:59:34;;;;;;;13.13;12.02;;;31.20;58.40;;;;;;6253855;28;20309;-58
2021/07/24 12:02:38;;;;;;;13.20;12.10;;;31.40;58.40;;;;;;6273086;28;20235;-59
2021/07/24 12:05:41;;;;;;;12.82;11.82;;;31.50;58.00;;;;;;6297135;28;20226;-61
2021/07/24 12:08:46;;;;;;;12.55;11.55;;;31.60;57.60;;;;;;6297927;28;20231;-58
2021/07/24 12:11:54;;;;;;;13.30;12.10;;;31.20;58.00;;;;;;6273302;28;20226;-59
2021/07/24 12:14:58;;;;;;;13.98;12.88;;;31.10;58.60;;;;;;6275761;28;20212;-59
2021/07/24 12:18:17;;;;;;;12.38;11.48;;;31.30;58.70;;;;;;6277776;28;20223;-60
2021/07/24 12:21:22;;;;;;;13.68;12.35;;;31.50;57.00;;;;;;6277461;28;20234;-62
2021/07/24 12:24:26;;;;;;;12.38;11.38;;;31.70;57.40;;;;;;6272600;28;20255;-62
2021/07/24 12:27:30;;;;;;;13.00;11.73;;;32.00;56.80;;;;;;6290717;28;20245;-60
2021/07/24 12:30:33;;;;;;;13.38;12.25;;;32.10;56.00;;;;;;6280658;28;20238;-60
2021/07/24 12:33:46;;;;;;;13.48;12.35;;;31.40;57.00;;;;;;6263936;28;20234;-60
2021/07/24 12:36:51;;;;;;;12.40;11.50;;;31.40;57.10;;;;;;6302533;28;20226;-60
2021/07/24 12:39:54;;;;;;;13.60;12.50;;;31.70;56.70;;;;;;6310555;28;20264;-60
2021/07/24 12:43:13;;;;;;;13.55;12.35;;;31.80;56.30;;;;;;6305005;28;20250;-60
2021/07/24 12:46:18;;;;;;;11.73;10.73;;;31.70;56.50;;;;;;6281232;28;20226;-60
2021/07/24 12:49:35;;;;;;;11.20;10.40;;;31.70;55.80;;;;;;6276930;28;20242;-61
2021/07/24 12:52:45;;;;;;;13.35;12.32;;;31.80;55.50;;;;;;6276897;28;20235;-61
2021/07/24 12:55:53;;;;;;;12.60;11.60;;;31.80;55.40;;;;;;6276721;28;20231;-61
2021/07/24 12:58:58;;;;;;;12.10;11.18;;;31.90;55.00;;;;;;6276233;28;20664;-60
2021/07/24 13:02:01;;;;;;;12.88;11.48;;;32.00;54.90;;;;;;6276971;28;20246;-61
2021/07/24 13:05:05;;;;;;;12.25;11.25;;;32.00;55.30;;;;;;6276733;28;20230;-60
2021/07/24 13:08:10;;;;;;;11.13;10.32;;;31.80;55.10;;;;;;6276983;28;20292;-60
2021/07/24 13:11:13;;;;;;;12.57;11.55;;;32.00;55.30;;;;;;6276280;28;20802;-60
2021/07/24 13:14:17;;;;;;;13.85;12.55;;;32.10;55.10;;;;;;6276456;28;20226;-59
2021/07/24 13:17:21;;;;;;;12.23;11.32;;;32.30;54.70;;;;;;6276117;28;20737;-60
2021/07/24 13:20:25;;;;;;;13.45;12.35;;;32.30;54.50;;;;;;6276658;28;20222;-60
2021/07/24 13:23:28;;;;;;;12.43;11.32;;;32.10;54.40;;;;;;6276126;28;20242;-60
2021/07/24 13:29:53;;;;;;;12.25;11.20;;;31.90;55.40;;;;;;6271212;28;20365;-61
2021/07/24 13:32:57;;;;;;;12.85;11.85;;;31.70;55.50;;;;;;6275861;28;20219;-60
2021/07/24 13:36:00;;;;;;;11.32;10.43;;;31.80;55.60;;;;;;6276343;28;20214;-61
2021/07/24 13:39:04;;;;;;;12.57;11.57;;;31.90;56.20;;;;;;6276178;28;20227;-61
2021/07/24 13:42:08;;;;;;;13.35;12.32;;;31.80;55.90;;;;;;6276126;28;20230;-60
2021/07/24 13:45:13;;;;;;;12.88;11.93;;;31.60;56.10;;;;;;6275734;28;20239;-58
2021/07/24 13:48:16;;;;;;;12.32;11.32;;;31.80;56.00;;;;;;6275922;28;20227;-58
2021/07/24 13:51:26;;;;;;;11.18;10.38;;;32.00;55.90;;;;;;6275333;28;20238;-60
2021/07/24 13:54:32;;;;;;;12.70;11.70;;;32.20;55.30;;;;;;6275667;28;20573;-61
2021/07/24 13:57:36;;;;;;;13.80;12.73;;;32.20;55.10;;;;;;6275130;28;20227;-59
2021/07/24 14:00:41;;;;;;;12.38;11.43;;;31.70;56.20;;;;;;6275534;28;20237;-58
2021/07/24 14:03:44;;;;;;;12.95;11.85;;;31.50;57.30;;;;;;6274048;28;20537;-58
2021/07/24 14:06:47;;;;;;;13.88;12.65;;;31.10;57.90;;;;;;6274509;28;20237;-59
2021/07/24 14:09:50;;;;;;;13.43;12.38;;;31.20;58.10;;;;;;6275010;28;20238;-60
2021/07/24 14:12:54;;;;;;;13.57;12.38;;;31.40;58.10;;;;;;6274896;28;20219;-60
2021/07/24 14:15:59;;;;;;;12.48;11.38;;;31.30;58.00;;;;;;6274362;28;20231;-60
2021/07/24 14:19:02;;;;;;;13.23;12.23;;;31.40;58.40;;;;;;6274397;28;20575;-60
2021/07/24 14:22:06;;;;;;;12.63;11.60;;;31.50;57.90;;;;;;6274396;28;20691;-60
2021/07/24 14:25:10;;;;;;;12.88;11.75;;;31.90;57.80;;;;;;6275115;28;20289;-60
2021/07/24 14:28:13;;;;;;;13.75;12.65;;;31.80;57.20;;;;;;6274790;28;20262;-60
2021/07/24 14:31:17;;;;;;;13.80;12.60;;;31.70;57.90;;;;;;6274439;28;20688;-59
2021/07/24 14:34:21;;;;;;;12.85;11.77;;;31.40;58.20;;;;;;6269236;28;20234;-59
2021/07/24 14:37:24;;;;;;;12.75;11.75;;;31.40;58.40;;;;;;6271447;28;20621;-59
2021/07/24 14:40:27;;;;;;;12.70;11.70;;;31.10;58.90;;;;;;6272537;28;20249;-60
2021/07/24 14:43:30;;;;;;;14.80;13.70;;;31.00;59.10;;;;;;6271858;28;20238;-60
2021/07/24 14:46:35;;;;;;;13.75;12.65;;;30.70;59.30;;;;;;6272459;28;20227;-59
2021/07/24 14:49:39;;;;;;;13.07;12.07;;;30.70;60.00;;;;;;6273084;28;20235;-58
2021/07/24 14:52:44;;;;;;;13.55;12.45;;;30.90;59.90;;;;;;6274575;28;20231;-58
2021/07/24 14:55:47;;;;;;;13.52;12.43;;;31.00;59.50;;;;;;6274270;28;20238;-58
2021/07/24 14:58:50;;;;;;;14.20;12.90;;;31.10;59.60;;;;;;6274380;28;20239;-59
2021/07/24 15:01:58;;;;;;;14.23;12.85;;;31.20;59.30;;;;;;6274162;28;20296;-58
2021/07/24 15:05:01;;;;;;;13.65;12.45;;;31.10;59.80;;;;;;6274216;28;20573;-58
2021/07/24 15:08:05;;;;;;;13.18;12.07;;;31.00;60.10;;;;;;6291910;28;20252;-60
2021/07/24 15:11:09;;;;;;;13.02;11.90;;;30.90;60.50;;;;;;6280190;28;20226;-59
2021/07/24 15:14:12;;;;;;;13.02;11.88;;;30.70;61.20;;;;;;6273134;28;20229;-58
2021/07/24 15:17:17;;;;;;;13.65;12.57;;;30.80;60.60;;;;;;6273568;28;20242;-59
2021/07/24 15:20:20;;;;;;;13.98;12.77;;;30.60;61.00;;;;;;6273859;28;20226;-58
2021/07/24 15:23:24;;;;;;;14.07;12.98;;;30.80;61.00;;;;;;6273445;28;20230;-59
2021/07/24 15:26:27;;;;;;;13.55;12.35;;;31.00;60.60;;;;;;6273952;28;20234;-59
2021/07/24 15:29:30;;;;;;;15.23;13.85;;;31.20;60.20;;;;;;6273371;28;20238;-59
2021/07/24 15:32:36;;;;;;;12.93;11.98;;;31.00;60.30;;;;;;6273851;28;20227;-59
2021/07/24 15:35:40;;;;;;;12.85;11.82;;;31.10;60.50;;;;;;6273483;28;20591;-59
2021/07/24 15:38:44;;;;;;;14.88;13.43;;;31.20;60.40;;;;;;6268993;28;20272;-59
2021/07/24 15:41:48;;;;;;;13.20;11.82;;;31.10;60.40;;;;;;6273211;28;20560;-59
2021/07/24 15:44:51;;;;;;;14.48;13.18;;;31.10;60.80;;;;;;6273597;28;20222;-59
2021/07/24 15:47:55;;;;;;;14.10;13.00;;;30.90;62.30;;;;;;6273413;28;20569;-60
2021/07/24 15:50:58;;;;;;;13.88;12.65;;;30.80;62.00;;;;;;6254028;28;20192;-60
2021/07/24 15:54:02;;;;;;;15.10;13.90;;;30.70;62.30;;;;;;6253591;28;20231;-60